sensor_id;sensor_type;location;lat;lon;timestamp;P1;durP1;ratioP1;P2;durP2;ratioP2
42964;SDS011;28604;51.204;22.552;2023-04-24T00:01:48;3.38;;;2.95;;
42964;SDS011;28604;51.204;22.552;2023-04-24T00:04:14;8.95;;;3.10;;
42964;SDS011;28604;51.204;22.552;2023-04-24T00:06:42;4.20;;;3.30;;
42964;SDS011;28604;51.204;22.552;2023-04-24T00:09:08;5.35;;;3.17;;
42964;SDS011;28604;51.204;22.552;2023-04-24T00:11:35;7.80;;;3.28;;
42964;SDS011;28604;51.204;22.552;2023-04-24T00:14:01;3.33;;;2.85;;
42964;SDS011;28604;51.204;22.552;2023-04-24T00:16:28;3.88;;;2.78;;
42964;SDS011;28604;51.204;22.552;2023-04-24T00:18:54;3.33;;;3.13;;
42964;SDS011;28604;51.204;22.552;2023-04-24T00:21:20;4.50;;;2.78;;
42964;SDS011;28604;51.204;22.552;2023-04-24T00:23:47;6.15;;;3.25;;
42964;SDS011;28604;51.204;22.552;2023-04-24T00:26:13;3.78;;;3.40;;
42964;SDS011;28604;51.204;22.552;2023-04-24T00:28:39;3.33;;;3.13;;
42964;SDS011;28604;51.204;22.552;2023-04-24T00:31:05;3.90;;;3.05;;
42964;SDS011;28604;51.204;22.552;2023-04-24T00:33:31;12.77;;;3.00;;
42964;SDS011;28604;51.204;22.552;2023-04-24T00:35:57;3.47;;;3.15;;
42964;SDS011;28604;51.204;22.552;2023-04-24T00:38:23;3.85;;;3.42;;
42964;SDS011;28604;51.204;22.552;2023-04-24T00:40:49;4.90;;;2.85;;
42964;SDS011;28604;51.204;22.552;2023-04-24T00:43:16;7.35;;;3.22;;
42964;SDS011;28604;51.204;22.552;2023-04-24T00:45:42;3.47;;;3.17;;
42964;SDS011;28604;51.204;22.552;2023-04-24T00:48:08;4.97;;;3.40;;
42964;SDS011;28604;51.204;22.552;2023-04-24T00:50:35;5.55;;;2.72;;
42964;SDS011;28604;51.204;22.552;2023-04-24T00:53:01;3.50;;;2.95;;
42964;SDS011;28604;51.204;22.552;2023-04-24T00:55:27;3.30;;;3.00;;
42964;SDS011;28604;51.204;22.552;2023-04-24T00:57:54;8.57;;;3.42;;
42964;SDS011;28604;51.204;22.552;2023-04-24T01:03:09;5.53;;;3.33;;
42964;SDS011;28604;51.204;22.552;2023-04-24T01:05:36;5.07;;;3.20;;
42964;SDS011;28604;51.204;22.552;2023-04-24T01:08:02;13.45;;;3.67;;
42964;SDS011;28604;51.204;22.552;2023-04-24T01:10:29;4.93;;;3.15;;
42964;SDS011;28604;51.204;22.552;2023-04-24T01:12:56;5.57;;;3.53;;
42964;SDS011;28604;51.204;22.552;2023-04-24T01:15:23;3.47;;;3.15;;
42964;SDS011;28604;51.204;22.552;2023-04-24T01:17:49;6.07;;;3.35;;
42964;SDS011;28604;51.204;22.552;2023-04-24T01:20:15;7.20;;;3.40;;
42964;SDS011;28604;51.204;22.552;2023-04-24T01:22:42;3.25;;;3.05;;
42964;SDS011;28604;51.204;22.552;2023-04-24T01:25:08;4.55;;;3.50;;
42964;SDS011;28604;51.204;22.552;2023-04-24T01:27:34;6.80;;;3.28;;
42964;SDS011;28604;51.204;22.552;2023-04-24T01:30:00;5.90;;;3.70;;
42964;SDS011;28604;51.204;22.552;2023-04-24T01:32:29;6.55;;;3.63;;
42964;SDS011;28604;51.204;22.552;2023-04-24T01:34:55;5.10;;;3.60;;
42964;SDS011;28604;51.204;22.552;2023-04-24T01:37:21;3.95;;;3.28;;
42964;SDS011;28604;51.204;22.552;2023-04-24T01:39:48;4.32;;;3.30;;
42964;SDS011;28604;51.204;22.552;2023-04-24T01:42:14;6.20;;;4.05;;
42964;SDS011;28604;51.204;22.552;2023-04-24T01:44:41;3.70;;;3.40;;
42964;SDS011;28604;51.204;22.552;2023-04-24T01:47:07;5.55;;;3.60;;
42964;SDS011;28604;51.204;22.552;2023-04-24T01:49:33;3.28;;;2.97;;
42964;SDS011;28604;51.204;22.552;2023-04-24T01:57:37;3.53;;;3.22;;
42964;SDS011;28604;51.204;22.552;2023-04-24T02:00:03;5.93;;;3.08;;
42964;SDS011;28604;51.204;22.552;2023-04-24T02:02:41;5.15;;;2.80;;
42964;SDS011;28604;51.204;22.552;2023-04-24T02:05:07;3.47;;;3.17;;
42964;SDS011;28604;51.204;22.552;2023-04-24T02:07:35;4.00;;;3.15;;
42964;SDS011;28604;51.204;22.552;2023-04-24T02:10:02;5.25;;;3.28;;
42964;SDS011;28604;51.204;22.552;2023-04-24T02:12:29;4.80;;;3.38;;
42964;SDS011;28604;51.204;22.552;2023-04-24T02:14:55;3.85;;;3.10;;
42964;SDS011;28604;51.204;22.552;2023-04-24T02:17:21;4.90;;;3.88;;
42964;SDS011;28604;51.204;22.552;2023-04-24T02:19:48;7.60;;;2.95;;
42964;SDS011;28604;51.204;22.552;2023-04-24T02:22:13;4.07;;;2.90;;
42964;SDS011;28604;51.204;22.552;2023-04-24T02:24:40;4.57;;;3.40;;
42964;SDS011;28604;51.204;22.552;2023-04-24T02:27:05;3.42;;;3.13;;
42964;SDS011;28604;51.204;22.552;2023-04-24T02:29:32;4.85;;;3.10;;
42964;SDS011;28604;51.204;22.552;2023-04-24T02:31:58;6.53;;;3.35;;
42964;SDS011;28604;51.204;22.552;2023-04-24T02:34:24;19.70;;;14.20;;
42964;SDS011;28604;51.204;22.552;2023-04-24T02:36:52;6.07;;;4.72;;
42964;SDS011;28604;51.204;22.552;2023-04-24T02:39:19;7.85;;;4.32;;
42964;SDS011;28604;51.204;22.552;2023-04-24T02:41:45;9.30;;;3.85;;
42964;SDS011;28604;51.204;22.552;2023-04-24T02:44:12;4.32;;;3.92;;
42964;SDS011;28604;51.204;22.552;2023-04-24T02:46:38;11.13;;;4.57;;
42964;SDS011;28604;51.204;22.552;2023-04-24T02:49:06;7.60;;;3.78;;
42964;SDS011;28604;51.204;22.552;2023-04-24T02:51:32;11.07;;;4.25;;
42964;SDS011;28604;51.204;22.552;2023-04-24T02:53:58;7.13;;;3.60;;
42964;SDS011;28604;51.204;22.552;2023-04-24T02:56:24;4.05;;;3.47;;
42964;SDS011;28604;51.204;22.552;2023-04-24T02:58:51;5.93;;;4.03;;
42964;SDS011;28604;51.204;22.552;2023-04-24T03:01:16;11.98;;;4.63;;
42964;SDS011;28604;51.204;22.552;2023-04-24T03:03:43;4.38;;;3.97;;
42964;SDS011;28604;51.204;22.552;2023-04-24T03:06:09;4.38;;;3.50;;
42964;SDS011;28604;51.204;22.552;2023-04-24T03:08:35;5.05;;;3.83;;
42964;SDS011;28604;51.204;22.552;2023-04-24T03:11:01;2.97;;;2.78;;
42964;SDS011;28604;51.204;22.552;2023-04-24T03:13:28;7.15;;;3.78;;
42964;SDS011;28604;51.204;22.552;2023-04-24T03:15:53;11.15;;;3.90;;
42964;SDS011;28604;51.204;22.552;2023-04-24T03:18:20;8.30;;;4.15;;
42964;SDS011;28604;51.204;22.552;2023-04-24T03:20:47;4.45;;;4.07;;
42964;SDS011;28604;51.204;22.552;2023-04-24T03:23:13;5.80;;;4.28;;
42964;SDS011;28604;51.204;22.552;2023-04-24T03:25:40;7.75;;;4.35;;
42964;SDS011;28604;51.204;22.552;2023-04-24T03:28:09;11.43;;;4.18;;
42964;SDS011;28604;51.204;22.552;2023-04-24T03:30:48;6.22;;;4.15;;
42964;SDS011;28604;51.204;22.552;2023-04-24T03:33:15;4.10;;;3.72;;
42964;SDS011;28604;51.204;22.552;2023-04-24T03:35:52;7.10;;;3.45;;
42964;SDS011;28604;51.204;22.552;2023-04-24T03:38:18;5.13;;;3.78;;
42964;SDS011;28604;51.204;22.552;2023-04-24T03:40:57;11.43;;;3.47;;
42964;SDS011;28604;51.204;22.552;2023-04-24T03:43:46;7.15;;;4.30;;
42964;SDS011;28604;51.204;22.552;2023-04-24T03:46:12;9.50;;;4.18;;
42964;SDS011;28604;51.204;22.552;2023-04-24T03:48:43;4.72;;;4.30;;
42964;SDS011;28604;51.204;22.552;2023-04-24T03:51:09;5.88;;;4.10;;
42964;SDS011;28604;51.204;22.552;2023-04-24T03:53:38;4.63;;;4.22;;
42964;SDS011;28604;51.204;22.552;2023-04-24T03:56:05;4.55;;;3.97;;
42964;SDS011;28604;51.204;22.552;2023-04-24T03:58:32;5.55;;;4.45;;
42964;SDS011;28604;51.204;22.552;2023-04-24T04:00:59;4.55;;;3.72;;
42964;SDS011;28604;51.204;22.552;2023-04-24T04:03:57;5.38;;;4.22;;
42964;SDS011;28604;51.204;22.552;2023-04-24T04:06:26;6.28;;;4.28;;
42964;SDS011;28604;51.204;22.552;2023-04-24T04:08:53;8.88;;;4.30;;
42964;SDS011;28604;51.204;22.552;2023-04-24T04:11:19;4.50;;;3.90;;
42964;SDS011;28604;51.204;22.552;2023-04-24T04:13:45;4.90;;;4.10;;
42964;SDS011;28604;51.204;22.552;2023-04-24T04:16:14;5.82;;;4.90;;
42964;SDS011;28604;51.204;22.552;2023-04-24T04:18:44;12.63;;;4.55;;
42964;SDS011;28604;51.204;22.552;2023-04-24T04:21:11;6.85;;;3.78;;
42964;SDS011;28604;51.204;22.552;2023-04-24T04:23:37;11.30;;;4.18;;
42964;SDS011;28604;51.204;22.552;2023-04-24T04:26:09;6.15;;;4.82;;
42964;SDS011;28604;51.204;22.552;2023-04-24T04:28:49;6.47;;;4.03;;
42964;SDS011;28604;51.204;22.552;2023-04-24T04:31:15;6.97;;;4.47;;
42964;SDS011;28604;51.204;22.552;2023-04-24T04:33:41;5.32;;;4.38;;
42964;SDS011;28604;51.204;22.552;2023-04-24T04:36:08;7.22;;;4.90;;
42964;SDS011;28604;51.204;22.552;2023-04-24T04:38:39;7.85;;;4.43;;
42964;SDS011;28604;51.204;22.552;2023-04-24T04:41:20;5.78;;;4.57;;
42964;SDS011;28604;51.204;22.552;2023-04-24T04:43:46;6.18;;;4.35;;
42964;SDS011;28604;51.204;22.552;2023-04-24T04:46:13;11.63;;;5.05;;
42964;SDS011;28604;51.204;22.552;2023-04-24T04:49:02;4.75;;;4.28;;
42964;SDS011;28604;51.204;22.552;2023-04-24T04:51:28;6.07;;;4.05;;
42964;SDS011;28604;51.204;22.552;2023-04-24T04:53:54;7.68;;;4.25;;
42964;SDS011;28604;51.204;22.552;2023-04-24T04:56:22;8.52;;;4.30;;
42964;SDS011;28604;51.204;22.552;2023-04-24T04:58:49;5.75;;;3.95;;
42964;SDS011;28604;51.204;22.552;2023-04-24T05:01:16;7.90;;;4.55;;
42964;SDS011;28604;51.204;22.552;2023-04-24T05:03:45;7.85;;;4.95;;
42964;SDS011;28604;51.204;22.552;2023-04-24T05:06:14;8.50;;;4.80;;
42964;SDS011;28604;51.204;22.552;2023-04-24T05:08:40;5.43;;;4.25;;
42964;SDS011;28604;51.204;22.552;2023-04-24T05:11:10;8.95;;;4.78;;
42964;SDS011;28604;51.204;22.552;2023-04-24T05:13:38;5.10;;;4.43;;
42964;SDS011;28604;51.204;22.552;2023-04-24T05:16:07;6.35;;;4.47;;
42964;SDS011;28604;51.204;22.552;2023-04-24T05:18:34;4.78;;;4.30;;
42964;SDS011;28604;51.204;22.552;2023-04-24T05:21:00;5.68;;;4.57;;
42964;SDS011;28604;51.204;22.552;2023-04-24T05:23:27;11.85;;;4.50;;
42964;SDS011;28604;51.204;22.552;2023-04-24T05:25:55;8.40;;;4.70;;
42964;SDS011;28604;51.204;22.552;2023-04-24T05:28:21;7.82;;;3.97;;
42964;SDS011;28604;51.204;22.552;2023-04-24T05:30:59;6.88;;;4.40;;
42964;SDS011;28604;51.204;22.552;2023-04-24T05:33:26;7.38;;;4.20;;
42964;SDS011;28604;51.204;22.552;2023-04-24T05:35:52;6.47;;;3.65;;
42964;SDS011;28604;51.204;22.552;2023-04-24T05:38:19;6.53;;;4.22;;
42964;SDS011;28604;51.204;22.552;2023-04-24T05:40:45;8.68;;;3.78;;
42964;SDS011;28604;51.204;22.552;2023-04-24T05:43:11;6.22;;;4.63;;
42964;SDS011;28604;51.204;22.552;2023-04-24T05:45:38;8.82;;;4.65;;
42964;SDS011;28604;51.204;22.552;2023-04-24T05:48:04;5.88;;;4.40;;
42964;SDS011;28604;51.204;22.552;2023-04-24T05:50:31;5.88;;;4.50;;
42964;SDS011;28604;51.204;22.552;2023-04-24T05:52:57;8.43;;;4.88;;
42964;SDS011;28604;51.204;22.552;2023-04-24T05:55:28;9.65;;;4.93;;
42964;SDS011;28604;51.204;22.552;2023-04-24T05:57:54;7.75;;;3.88;;
42964;SDS011;28604;51.204;22.552;2023-04-24T06:00:20;5.25;;;4.20;;
42964;SDS011;28604;51.204;22.552;2023-04-24T06:02:56;15.25;;;4.22;;
42964;SDS011;28604;51.204;22.552;2023-04-24T06:05:21;14.85;;;4.20;;
42964;SDS011;28604;51.204;22.552;2023-04-24T06:07:48;15.55;;;4.57;;
42964;SDS011;28604;51.204;22.552;2023-04-24T06:10:14;6.85;;;3.90;;
42964;SDS011;28604;51.204;22.552;2023-04-24T06:12:43;4.68;;;3.80;;
42964;SDS011;28604;51.204;22.552;2023-04-24T06:15:15;10.32;;;3.97;;
42964;SDS011;28604;51.204;22.552;2023-04-24T06:18:11;3.15;;;2.90;;
42964;SDS011;28604;51.204;22.552;2023-04-24T06:20:38;3.70;;;3.40;;
42964;SDS011;28604;51.204;22.552;2023-04-24T06:23:08;4.30;;;3.63;;
42964;SDS011;28604;51.204;22.552;2023-04-24T06:25:34;3.75;;;2.83;;
42964;SDS011;28604;51.204;22.552;2023-04-24T06:28:00;5.82;;;2.58;;
42964;SDS011;28604;51.204;22.552;2023-04-24T06:30:28;3.33;;;3.00;;
42964;SDS011;28604;51.204;22.552;2023-04-24T06:32:55;6.28;;;3.33;;
42964;SDS011;28604;51.204;22.552;2023-04-24T06:35:20;13.32;;;3.00;;
42964;SDS011;28604;51.204;22.552;2023-04-24T06:37:46;8.27;;;2.97;;
42964;SDS011;28604;51.204;22.552;2023-04-24T06:40:12;11.93;;;3.28;;
42964;SDS011;28604;51.204;22.552;2023-04-24T06:42:39;3.05;;;2.85;;
42964;SDS011;28604;51.204;22.552;2023-04-24T06:45:07;7.50;;;2.63;;
42964;SDS011;28604;51.204;22.552;2023-04-24T06:47:33;6.18;;;3.35;;
42964;SDS011;28604;51.204;22.552;2023-04-24T06:49:59;11.55;;;3.55;;
42964;SDS011;28604;51.204;22.552;2023-04-24T06:52:25;8.13;;;3.13;;
42964;SDS011;28604;51.204;22.552;2023-04-24T06:54:51;3.50;;;2.90;;
42964;SDS011;28604;51.204;22.552;2023-04-24T06:57:17;4.82;;;3.25;;
42964;SDS011;28604;51.204;22.552;2023-04-24T06:59:44;4.57;;;2.60;;
42964;SDS011;28604;51.204;22.552;2023-04-24T07:02:10;18.75;;;3.58;;
42964;SDS011;28604;51.204;22.552;2023-04-24T07:04:36;12.60;;;3.13;;
42964;SDS011;28604;51.204;22.552;2023-04-24T07:07:02;10.90;;;3.15;;
42964;SDS011;28604;51.204;22.552;2023-04-24T07:09:28;5.30;;;2.45;;
42964;SDS011;28604;51.204;22.552;2023-04-24T07:11:54;5.43;;;2.05;;
42964;SDS011;28604;51.204;22.552;2023-04-24T07:14:21;18.42;;;4.53;;
42964;SDS011;28604;51.204;22.552;2023-04-24T07:16:48;5.53;;;2.50;;
42964;SDS011;28604;51.204;22.552;2023-04-24T07:19:14;3.65;;;2.53;;
42964;SDS011;28604;51.204;22.552;2023-04-24T07:21:40;3.47;;;2.92;;
42964;SDS011;28604;51.204;22.552;2023-04-24T07:24:06;6.75;;;2.60;;
42964;SDS011;28604;51.204;22.552;2023-04-24T07:26:36;6.13;;;2.83;;
42964;SDS011;28604;51.204;22.552;2023-04-24T07:29:03;2.17;;;1.75;;
42964;SDS011;28604;51.204;22.552;2023-04-24T07:31:29;9.18;;;2.45;;
42964;SDS011;28604;51.204;22.552;2023-04-24T07:33:55;9.05;;;2.55;;
42964;SDS011;28604;51.204;22.552;2023-04-24T07:36:23;3.30;;;3.00;;
42964;SDS011;28604;51.204;22.552;2023-04-24T07:38:52;10.57;;;3.30;;
42964;SDS011;28604;51.204;22.552;2023-04-24T07:41:18;8.77;;;2.92;;
42964;SDS011;28604;51.204;22.552;2023-04-24T07:43:44;5.95;;;2.42;;
42964;SDS011;28604;51.204;22.552;2023-04-24T07:46:11;5.45;;;3.05;;
42964;SDS011;28604;51.204;22.552;2023-04-24T07:48:36;3.95;;;3.20;;
42964;SDS011;28604;51.204;22.552;2023-04-24T07:51:03;3.20;;;2.90;;
42964;SDS011;28604;51.204;22.552;2023-04-24T07:53:28;4.63;;;2.92;;
42964;SDS011;28604;51.204;22.552;2023-04-24T07:55:55;3.83;;;2.53;;
42964;SDS011;28604;51.204;22.552;2023-04-24T07:58:21;2.95;;;2.13;;
42964;SDS011;28604;51.204;22.552;2023-04-24T08:00:47;3.25;;;2.60;;
42964;SDS011;28604;51.204;22.552;2023-04-24T08:03:13;3.95;;;2.42;;
42964;SDS011;28604;51.204;22.552;2023-04-24T08:05:40;8.63;;;3.10;;
42964;SDS011;28604;51.204;22.552;2023-04-24T08:08:07;12.13;;;3.17;;
42964;SDS011;28604;51.204;22.552;2023-04-24T08:10:33;11.27;;;3.13;;
42964;SDS011;28604;51.204;22.552;2023-04-24T08:12:59;5.63;;;3.13;;
42964;SDS011;28604;51.204;22.552;2023-04-24T08:15:25;3.08;;;2.83;;
42964;SDS011;28604;51.204;22.552;2023-04-24T08:17:52;5.70;;;3.67;;
42964;SDS011;28604;51.204;22.552;2023-04-24T08:20:18;6.53;;;2.35;;
42964;SDS011;28604;51.204;22.552;2023-04-24T08:22:44;2.70;;;2.47;;
42964;SDS011;28604;51.204;22.552;2023-04-24T08:25:12;11.70;;;2.85;;
42964;SDS011;28604;51.204;22.552;2023-04-24T08:27:38;3.50;;;2.97;;
42964;SDS011;28604;51.204;22.552;2023-04-24T08:30:05;3.10;;;2.60;;
42964;SDS011;28604;51.204;22.552;2023-04-24T08:32:31;2.22;;;2.03;;
42964;SDS011;28604;51.204;22.552;2023-04-24T08:34:58;3.10;;;2.78;;
42964;SDS011;28604;51.204;22.552;2023-04-24T08:37:25;4.78;;;2.70;;
42964;SDS011;28604;51.204;22.552;2023-04-24T08:39:52;22.45;;;2.40;;
42964;SDS011;28604;51.204;22.552;2023-04-24T08:42:19;5.00;;;2.28;;
42964;SDS011;28604;51.204;22.552;2023-04-24T08:44:47;2.58;;;2.38;;
42964;SDS011;28604;51.204;22.552;2023-04-24T08:47:14;2.90;;;2.42;;
42964;SDS011;28604;51.204;22.552;2023-04-24T08:49:41;7.32;;;2.72;;
42964;SDS011;28604;51.204;22.552;2023-04-24T08:52:08;9.80;;;2.28;;
42964;SDS011;28604;51.204;22.552;2023-04-24T08:54:37;7.65;;;2.38;;
42964;SDS011;28604;51.204;22.552;2023-04-24T08:57:04;2.45;;;2.30;;
42964;SDS011;28604;51.204;22.552;2023-04-24T08:59:33;10.85;;;2.63;;
42964;SDS011;28604;51.204;22.552;2023-04-24T09:02:00;7.60;;;2.13;;
42964;SDS011;28604;51.204;22.552;2023-04-24T09:04:29;3.05;;;2.10;;
42964;SDS011;28604;51.204;22.552;2023-04-24T09:06:56;4.32;;;2.30;;
42964;SDS011;28604;51.204;22.552;2023-04-24T09:09:24;2.45;;;2.33;;
42964;SDS011;28604;51.204;22.552;2023-04-24T09:11:50;5.50;;;2.08;;
42964;SDS011;28604;51.204;22.552;2023-04-24T09:14:19;10.77;;;2.63;;
42964;SDS011;28604;51.204;22.552;2023-04-24T09:16:45;7.55;;;3.05;;
42964;SDS011;28604;51.204;22.552;2023-04-24T09:19:12;3.58;;;2.70;;
42964;SDS011;28604;51.204;22.552;2023-04-24T09:21:38;6.13;;;2.05;;
42964;SDS011;28604;51.204;22.552;2023-04-24T09:24:07;2.25;;;2.05;;
42964;SDS011;28604;51.204;22.552;2023-04-24T09:26:39;2.90;;;1.85;;
42964;SDS011;28604;51.204;22.552;2023-04-24T09:29:05;6.30;;;2.90;;
42964;SDS011;28604;51.204;22.552;2023-04-24T09:31:31;4.78;;;2.35;;
42964;SDS011;28604;51.204;22.552;2023-04-24T09:33:58;6.00;;;2.10;;
42964;SDS011;28604;51.204;22.552;2023-04-24T09:36:30;10.80;;;2.17;;
42964;SDS011;28604;51.204;22.552;2023-04-24T09:39:08;5.75;;;2.47;;
42964;SDS011;28604;51.204;22.552;2023-04-24T09:41:55;7.63;;;2.17;;
42964;SDS011;28604;51.204;22.552;2023-04-24T09:44:26;8.68;;;2.05;;
42964;SDS011;28604;51.204;22.552;2023-04-24T09:46:59;23.83;;;3.50;;
42964;SDS011;28604;51.204;22.552;2023-04-24T09:49:26;10.38;;;2.83;;
42964;SDS011;28604;51.204;22.552;2023-04-24T09:52:03;11.35;;;2.53;;
42964;SDS011;28604;51.204;22.552;2023-04-24T09:54:36;7.38;;;1.83;;
42964;SDS011;28604;51.204;22.552;2023-04-24T09:57:03;10.57;;;2.40;;
42964;SDS011;28604;51.204;22.552;2023-04-24T09:59:30;13.80;;;2.47;;
42964;SDS011;28604;51.204;22.552;2023-04-24T10:01:56;8.85;;;2.33;;
42964;SDS011;28604;51.204;22.552;2023-04-24T10:04:25;3.08;;;2.28;;
42964;SDS011;28604;51.204;22.552;2023-04-24T10:06:53;6.88;;;2.30;;
42964;SDS011;28604;51.204;22.552;2023-04-24T10:09:22;9.80;;;2.50;;
42964;SDS011;28604;51.204;22.552;2023-04-24T10:11:49;8.38;;;2.15;;
42964;SDS011;28604;51.204;22.552;2023-04-24T10:14:17;6.78;;;2.40;;
42964;SDS011;28604;51.204;22.552;2023-04-24T10:16:47;5.00;;;1.85;;
42964;SDS011;28604;51.204;22.552;2023-04-24T10:19:14;3.80;;;2.00;;
42964;SDS011;28604;51.204;22.552;2023-04-24T10:21:41;7.53;;;2.45;;
42964;SDS011;28604;51.204;22.552;2023-04-24T10:24:12;6.00;;;2.10;;
42964;SDS011;28604;51.204;22.552;2023-04-24T10:26:42;6.25;;;2.38;;
42964;SDS011;28604;51.204;22.552;2023-04-24T10:29:13;5.78;;;2.28;;
42964;SDS011;28604;51.204;22.552;2023-04-24T10:31:40;5.55;;;1.92;;
42964;SDS011;28604;51.204;22.552;2023-04-24T10:34:08;7.43;;;1.98;;
42964;SDS011;28604;51.204;22.552;2023-04-24T10:36:35;4.22;;;1.83;;
42964;SDS011;28604;51.204;22.552;2023-04-24T10:39:06;6.22;;;1.75;;
42964;SDS011;28604;51.204;22.552;2023-04-24T10:41:36;4.93;;;1.92;;
42964;SDS011;28604;51.204;22.552;2023-04-24T10:44:16;32.97;;;3.10;;
42964;SDS011;28604;51.204;22.552;2023-04-24T10:46:43;2.83;;;1.67;;
42964;SDS011;28604;51.204;22.552;2023-04-24T10:49:10;2.25;;;1.73;;
42964;SDS011;28604;51.204;22.552;2023-04-24T10:51:47;11.38;;;1.92;;
42964;SDS011;28604;51.204;22.552;2023-04-24T10:54:22;5.18;;;1.50;;
42964;SDS011;28604;51.204;22.552;2023-04-24T10:59:46;1.65;;;1.58;;
42964;SDS011;28604;51.204;22.552;2023-04-24T11:02:17;2.88;;;2.35;;
42964;SDS011;28604;51.204;22.552;2023-04-24T11:04:44;4.50;;;1.83;;
42964;SDS011;28604;51.204;22.552;2023-04-24T11:07:12;4.03;;;2.72;;
42964;SDS011;28604;51.204;22.552;2023-04-24T11:09:39;1.80;;;1.70;;
42964;SDS011;28604;51.204;22.552;2023-04-24T11:12:08;3.60;;;2.20;;
42964;SDS011;28604;51.204;22.552;2023-04-24T11:17:27;15.35;;;3.00;;
42964;SDS011;28604;51.204;22.552;2023-04-24T11:20:05;3.15;;;1.73;;
42964;SDS011;28604;51.204;22.552;2023-04-24T11:22:41;4.68;;;2.63;;
42964;SDS011;28604;51.204;22.552;2023-04-24T11:25:08;6.97;;;2.60;;
42964;SDS011;28604;51.204;22.552;2023-04-24T11:27:43;4.90;;;2.03;;
42964;SDS011;28604;51.204;22.552;2023-04-24T11:30:11;8.18;;;1.95;;
42964;SDS011;28604;51.204;22.552;2023-04-24T11:32:42;13.25;;;2.45;;
42964;SDS011;28604;51.204;22.552;2023-04-24T11:35:13;3.03;;;1.98;;
42964;SDS011;28604;51.204;22.552;2023-04-24T11:37:44;4.13;;;2.53;;
42964;SDS011;28604;51.204;22.552;2023-04-24T11:40:12;19.25;;;2.83;;
42964;SDS011;28604;51.204;22.552;2023-04-24T11:42:43;26.95;;;3.55;;
42964;SDS011;28604;51.204;22.552;2023-04-24T11:45:11;4.93;;;2.10;;
42964;SDS011;28604;51.204;22.552;2023-04-24T11:47:38;11.13;;;2.75;;
42964;SDS011;28604;51.204;22.552;2023-04-24T11:50:06;8.25;;;3.03;;
42964;SDS011;28604;51.204;22.552;2023-04-24T11:52:36;10.20;;;3.40;;
42964;SDS011;28604;51.204;22.552;2023-04-24T11:55:03;4.00;;;2.05;;
42964;SDS011;28604;51.204;22.552;2023-04-24T11:57:29;4.72;;;1.90;;
42964;SDS011;28604;51.204;22.552;2023-04-24T12:00:00;3.13;;;1.70;;
42964;SDS011;28604;51.204;22.552;2023-04-24T12:02:37;2.40;;;1.40;;
42964;SDS011;28604;51.204;22.552;2023-04-24T12:05:03;3.85;;;1.90;;
42964;SDS011;28604;51.204;22.552;2023-04-24T12:07:29;10.32;;;2.42;;
42964;SDS011;28604;51.204;22.552;2023-04-24T12:10:08;12.57;;;2.22;;
42964;SDS011;28604;51.204;22.552;2023-04-24T12:12:34;4.20;;;1.95;;
42964;SDS011;28604;51.204;22.552;2023-04-24T12:15:00;3.00;;;1.98;;
42964;SDS011;28604;51.204;22.552;2023-04-24T12:17:28;3.80;;;1.70;;
42964;SDS011;28604;51.204;22.552;2023-04-24T12:20:00;7.43;;;2.22;;
42964;SDS011;28604;51.204;22.552;2023-04-24T12:22:28;1.60;;;1.50;;
42964;SDS011;28604;51.204;22.552;2023-04-24T12:25:17;4.40;;;2.10;;
42964;SDS011;28604;51.204;22.552;2023-04-24T12:27:44;8.15;;;1.67;;
42964;SDS011;28604;51.204;22.552;2023-04-24T12:30:15;9.82;;;1.27;;
42964;SDS011;28604;51.204;22.552;2023-04-24T12:32:45;3.30;;;1.50;;
42964;SDS011;28604;51.204;22.552;2023-04-24T12:35:12;3.58;;;1.83;;
42964;SDS011;28604;51.204;22.552;2023-04-24T12:37:41;10.68;;;2.25;;
42964;SDS011;28604;51.204;22.552;2023-04-24T12:40:09;7.68;;;1.70;;
42964;SDS011;28604;51.204;22.552;2023-04-24T12:42:41;10.48;;;2.35;;
42964;SDS011;28604;51.204;22.552;2023-04-24T12:45:08;1.48;;;1.38;;
42964;SDS011;28604;51.204;22.552;2023-04-24T12:47:34;4.20;;;1.75;;
42964;SDS011;28604;51.204;22.552;2023-04-24T12:50:01;3.28;;;1.50;;
42964;SDS011;28604;51.204;22.552;2023-04-24T12:52:28;7.32;;;2.70;;
42964;SDS011;28604;51.204;22.552;2023-04-24T12:54:56;13.40;;;2.25;;
42964;SDS011;28604;51.204;22.552;2023-04-24T12:57:23;11.68;;;2.22;;
42964;SDS011;28604;51.204;22.552;2023-04-24T12:59:52;11.32;;;1.77;;
42964;SDS011;28604;51.204;22.552;2023-04-24T13:02:19;10.27;;;1.95;;
42964;SDS011;28604;51.204;22.552;2023-04-24T13:04:46;4.97;;;1.35;;
42964;SDS011;28604;51.204;22.552;2023-04-24T13:07:15;4.57;;;1.55;;
42964;SDS011;28604;51.204;22.552;2023-04-24T13:09:42;6.03;;;1.30;;
42964;SDS011;28604;51.204;22.552;2023-04-24T13:12:10;4.15;;;1.70;;
42964;SDS011;28604;51.204;22.552;2023-04-24T13:14:37;3.92;;;1.85;;
42964;SDS011;28604;51.204;22.552;2023-04-24T13:17:03;4.57;;;1.65;;
42964;SDS011;28604;51.204;22.552;2023-04-24T13:19:30;5.13;;;1.45;;
42964;SDS011;28604;51.204;22.552;2023-04-24T13:22:01;3.97;;;1.35;;
42964;SDS011;28604;51.204;22.552;2023-04-24T13:24:28;2.63;;;1.58;;
42964;SDS011;28604;51.204;22.552;2023-04-24T13:26:54;34.53;;;2.65;;
42964;SDS011;28604;51.204;22.552;2023-04-24T13:29:22;18.00;;;2.03;;
42964;SDS011;28604;51.204;22.552;2023-04-24T13:31:50;3.05;;;2.28;;
42964;SDS011;28604;51.204;22.552;2023-04-24T13:34:17;4.72;;;1.60;;
42964;SDS011;28604;51.204;22.552;2023-04-24T13:36:43;5.15;;;1.90;;
42964;SDS011;28604;51.204;22.552;2023-04-24T13:39:09;4.50;;;1.67;;
42964;SDS011;28604;51.204;22.552;2023-04-24T13:41:35;3.13;;;1.80;;
42964;SDS011;28604;51.204;22.552;2023-04-24T13:44:02;1.85;;;1.75;;
42964;SDS011;28604;51.204;22.552;2023-04-24T13:46:29;3.78;;;1.90;;
42964;SDS011;28604;51.204;22.552;2023-04-24T13:48:56;3.97;;;2.00;;
42964;SDS011;28604;51.204;22.552;2023-04-24T13:51:22;6.75;;;2.13;;
42964;SDS011;28604;51.204;22.552;2023-04-24T13:53:49;6.22;;;2.28;;
42964;SDS011;28604;51.204;22.552;2023-04-24T13:56:15;9.18;;;2.17;;
42964;SDS011;28604;51.204;22.552;2023-04-24T13:58:41;6.18;;;2.20;;
42964;SDS011;28604;51.204;22.552;2023-04-24T14:01:07;8.57;;;2.00;;
42964;SDS011;28604;51.204;22.552;2023-04-24T14:03:33;3.05;;;1.75;;
42964;SDS011;28604;51.204;22.552;2023-04-24T14:05:59;3.03;;;1.83;;
42964;SDS011;28604;51.204;22.552;2023-04-24T14:08:25;4.13;;;1.88;;
42964;SDS011;28604;51.204;22.552;2023-04-24T14:10:51;7.63;;;1.75;;
42964;SDS011;28604;51.204;22.552;2023-04-24T14:13:17;2.35;;;2.15;;
42964;SDS011;28604;51.204;22.552;2023-04-24T14:15:43;6.70;;;2.17;;
42964;SDS011;28604;51.204;22.552;2023-04-24T14:18:09;4.85;;;2.00;;
42964;SDS011;28604;51.204;22.552;2023-04-24T14:20:35;2.22;;;1.90;;
42964;SDS011;28604;51.204;22.552;2023-04-24T14:23:01;1.52;;;1.42;;
42964;SDS011;28604;51.204;22.552;2023-04-24T14:25:26;3.53;;;2.00;;
42964;SDS011;28604;51.204;22.552;2023-04-24T14:27:53;5.93;;;1.85;;
42964;SDS011;28604;51.204;22.552;2023-04-24T14:30:18;7.25;;;1.88;;
42964;SDS011;28604;51.204;22.552;2023-04-24T14:32:45;6.03;;;2.13;;
42964;SDS011;28604;51.204;22.552;2023-04-24T14:35:11;3.42;;;1.42;;
42964;SDS011;28604;51.204;22.552;2023-04-24T14:37:37;6.50;;;2.28;;
42964;SDS011;28604;51.204;22.552;2023-04-24T14:40:06;5.47;;;2.00;;
42964;SDS011;28604;51.204;22.552;2023-04-24T14:42:33;3.60;;;1.60;;
42964;SDS011;28604;51.204;22.552;2023-04-24T14:45:00;2.45;;;2.08;;
42964;SDS011;28604;51.204;22.552;2023-04-24T14:47:26;2.50;;;1.92;;
42964;SDS011;28604;51.204;22.552;2023-04-24T14:49:52;14.25;;;1.88;;
42964;SDS011;28604;51.204;22.552;2023-04-24T14:52:18;2.33;;;1.75;;